Time;durP1;ratioP1;P1;durP2;ratioP2;P2;SDS_P1;SDS_P2;PMS_P1;PMS_P2;Temp;Humidity;BMP_temperature;BMP_pressure;BME280_temperature;BME280_humidity;BME280_pressure;Samples;Min_cycle;Max_cycle;Signal;HPM_P1;HPM_P2
2022/09/09 00:01:36;;;;;;;17.70;6.75;;;;;;;15.67;92.42;99935.88;6241000;23;19923;-41
2022/09/09 00:04:18;;;;;;;12.00;6.57;;;;;;;15.66;92.64;99928.69;6241072;22;20315;-42
2022/09/09 00:06:53;;;;;;;10.88;6.43;;;;;;;15.66;92.92;99934.25;6240655;22;20348;-41
2022/09/09 00:09:24;;;;;;;8.75;5.38;;;;;;;15.66;92.93;99940.66;6240474;22;20031;-42
2022/09/09 00:12:15;;;;;;;10.27;5.28;;;;;;;15.66;93.40;99939.84;6240722;23;20020;-45
2022/09/09 00:14:56;;;;;;;6.05;4.65;;;;;;;15.63;93.29;99940.63;6240678;23;20390;-42
2022/09/09 00:17:39;;;;;;;8.38;4.03;;;;;;;15.60;93.37;99947.00;6240251;22;20494;-49
2022/09/09 00:20:14;;;;;;;5.53;3.55;;;;;;;15.57;93.51;99943.03;6240587;22;20501;-48
2022/09/09 00:22:50;;;;;;;8.18;3.80;;;;;;;15.57;93.68;99942.22;6240707;22;20016;-41
2022/09/09 00:25:49;;;;;;;7.80;3.97;;;;;;;15.56;93.88;99951.81;6240447;22;20028;-40
2022/09/09 00:28:20;;;;;;;6.75;3.28;;;;;;;15.51;93.70;99938.25;6240296;23;20099;-41
2022/09/09 00:30:49;;;;;;;8.13;3.55;;;;;;;15.50;93.98;99948.59;6240588;22;20321;-42
2022/09/09 00:33:22;;;;;;;4.88;3.33;;;;;;;15.50;94.10;99939.44;6240304;22;20426;-41
2022/09/09 00:35:50;;;;;;;;;;;;;;;15.48;94.16;99941.84;6270599;22;20505;-44
2022/09/09 00:38:39;;;;;;;9.35;4.70;;;;;;;15.46;93.83;99944.22;6271868;22;19965;-41
2022/09/09 00:41:25;;;;;;;6.65;3.72;;;;;;;15.42;93.99;99930.25;6244438;22;20027;-40
2022/09/09 00:44:22;;;;;;;11.85;5.22;;;;;;;15.43;94.24;99929.06;6271029;22;20081;-40
2022/09/09 00:47:08;;;;;;;14.15;4.95;;;;;;;15.40;94.20;99929.84;6270472;22;20023;-41
2022/09/09 00:49:41;;;;;;;9.18;4.90;;;;;;;15.37;94.46;99935.41;6270885;22;20023;-41
2022/09/09 00:52:18;;;;;;;9.32;5.47;;;;;;;15.34;94.77;99923.06;6270555;22;20405;-42
2022/09/09 00:54:47;;;;;;;7.78;4.85;;;;;;;15.32;95.06;99927.44;6271401;22;20034;-41
2022/09/09 00:57:23;;;;;;;10.82;5.68;;;;;;;15.33;95.19;99920.69;6271290;22;20016;-42
2022/09/09 01:00:00;;;;;;;9.88;5.18;;;;;;;15.32;95.33;99925.47;6270849;22;20024;-40
2022/09/09 01:02:44;;;;;;;9.57;5.65;;;;;;;15.33;95.31;99912.31;6271585;22;20457;-41
2022/09/09 01:05:20;;;;;;;4.55;3.92;;;;;;;15.33;95.46;99920.69;6270624;22;20069;-45
2022/09/09 01:07:49;;;;;;;8.85;4.35;;;;;;;15.31;95.50;99911.88;6270997;22;20016;-43
2022/09/09 01:10:47;;;;;;;6.38;4.88;;;;;;;15.27;95.54;99911.09;6270903;22;20450;-40
2022/09/09 01:13:22;;;;;;;7.78;5.03;;;;;;;15.28;95.39;99916.28;6270746;22;20019;-42
2022/09/09 01:15:50;;;;;;;9.30;6.30;;;;;;;15.25;95.75;99917.88;6270667;22;20496;-43
2022/09/09 01:18:19;;;;;;;9.88;5.03;;;;;;;15.27;95.86;99920.28;6270935;22;20019;-40
2022/09/09 01:20:49;;;;;;;8.88;5.20;;;;;;;15.25;96.03;99920.66;6243542;22;20094;-41
2022/09/09 01:23:53;;;;;;;7.43;5.22;;;;;;;15.27;96.20;99922.25;6270732;22;20020;-40
2022/09/09 01:26:26;;;;;;;9.65;5.28;;;;;;;15.23;96.09;99931.41;6270244;22;20117;-45
2022/09/09 01:28:54;;;;;;;7.07;5.00;;;;;;;15.23;96.12;99922.25;6270914;22;20016;-41
2022/09/09 01:31:38;;;;;;;7.10;4.25;;;;;;;15.22;96.57;99910.28;6270643;22;20024;-40
2022/09/09 01:34:30;;;;;;;7.43;5.05;;;;;;;15.19;96.24;99916.69;6270401;22;20106;-40
2022/09/09 01:37:08;;;;;;;8.27;5.18;;;;;;;15.16;96.42;99917.47;6260173;22;20047;-41
2022/09/09 01:39:38;;;;;;;9.80;4.90;;;;;;;15.16;96.58;99917.47;6270655;22;20338;-41
2022/09/09 01:42:08;;;;;;;6.65;5.18;;;;;;;15.15;96.63;99921.44;6270832;22;20019;-40
2022/09/09 01:44:42;;;;;;;5.57;4.32;;;;;;;15.14;97.01;99916.28;6270640;22;20816;-42
2022/09/09 01:47:10;;;;;;;10.65;6.15;;;;;;;15.13;96.89;99915.47;6270879;22;20042;-40
2022/09/09 01:49:38;;;;;;;8.13;4.03;;;;;;;15.13;96.82;99923.84;6270585;22;20019;-41
2022/09/09 01:52:05;;;;;;;10.52;4.18;;;;;;;15.13;96.99;99923.03;6270709;22;20106;-41
2022/09/09 01:54:33;;;;;;;9.38;4.50;;;;;;;15.15;97.12;99915.06;6270464;22;20026;-41
2022/09/09 01:57:33;;;;;;;13.15;5.82;;;;;;;15.17;97.31;99913.47;6271159;22;20069;-47
2022/09/09 02:00:13;;;;;;;8.00;4.18;;;;;;;15.16;97.32;99917.47;6272744;22;20081;-40
2022/09/09 02:02:53;;;;;;;9.38;4.18;;;;;;;15.14;97.33;99914.25;6272842;22;20327;-40
2022/09/09 02:05:49;;;;;;;7.57;3.72;;;;;;;15.16;97.39;99911.09;6272592;22;20027;-46
2022/09/09 02:08:45;;;;;;;7.32;3.42;;;;;;;15.14;97.59;99913.50;6272700;22;20016;-40
2022/09/09 02:11:14;;;;;;;9.55;3.67;;;;;;;15.11;97.61;99912.28;6269289;22;20030;-41
2022/09/09 02:16:42;;;;;;;9.02;4.03;;;;;;;15.11;97.85;99906.72;6273014;22;20047;-43
2022/09/09 02:19:16;;;;;;;8.50;3.22;;;;;;;15.11;97.92;99917.88;6272926;22;20417;-45
2022/09/09 02:21:45;;;;;;;5.55;3.67;;;;;;;15.09;97.96;99917.44;6273129;22;20020;-40
2022/09/09 02:24:15;;;;;;;6.88;4.40;;;;;;;15.06;97.97;99907.06;6272961;22;20094;-41
2022/09/09 02:26:52;;;;;;;8.15;4.15;;;;;;;15.07;98.18;99910.66;6272858;22;20070;-40
2022/09/09 02:29:26;;;;;;;6.18;3.70;;;;;;;15.04;98.03;99915.03;6272845;22;20045;-41
2022/09/09 02:31:57;;;;;;;7.05;3.70;;;;;;;15.04;98.10;99908.66;6272513;22;20438;-40
2022/09/09 02:34:27;;;;;;;8.07;4.20;;;;;;;15.06;98.19;99906.31;6272131;22;20028;-42
2022/09/09 02:36:57;;;;;;;6.40;3.67;;;;;;;15.04;98.32;99915.03;6272186;22;20319;-40
2022/09/09 02:39:23;;;;;;;6.13;3.78;;;;;;;15.02;98.27;99906.28;6272809;22;20058;-42
2022/09/09 02:41:50;;;;;;;8.48;3.67;;;;;;;15.02;98.34;99909.06;6272502;22;20030;-40
2022/09/09 02:44:18;;;;;;;8.60;4.90;;;;;;;15.03;98.42;99913.47;6272398;22;20027;-48
2022/09/09 02:46:56;;;;;;;6.82;2.95;;;;;;;15.03;98.63;99913.47;6272257;22;20344;-46
2022/09/09 02:49:42;;;;;;;6.57;3.90;;;;;;;15.02;98.44;99911.88;6272716;22;20030;-45
2022/09/09 02:52:16;;;;;;;4.63;2.80;;;;;;;15.00;98.75;99897.53;6272620;22;20081;-47
2022/09/09 02:54:43;;;;;;;5.75;3.08;;;;;;;15.00;98.67;99900.31;6271754;22;20458;-41
2022/09/09 02:57:20;;;;;;;5.00;3.17;;;;;;;15.00;98.74;99907.88;6272112;22;20043;-41
2022/09/09 02:59:47;;;;;;;5.28;3.53;;;;;;;14.97;98.79;99898.31;6271910;22;20529;-42
2022/09/09 03:02:18;;;;;;;8.00;3.10;;;;;;;14.95;98.82;99895.13;6264448;22;20051;-43
2022/09/09 03:04:50;;;;;;;6.40;3.08;;;;;;;14.94;98.82;99893.53;6272196;22;20085;-41
2022/09/09 03:07:20;;;;;;;6.70;3.88;;;;;;;14.95;98.96;99891.53;6271716;22;20019;-42
2022/09/09 03:09:47;;;;;;;7.28;3.58;;;;;;;14.92;99.17;99884.78;6272050;22;20141;-41
2022/09/09 03:12:14;;;;;;;6.90;3.20;;;;;;;14.93;99.24;99889.13;6271960;22;20447;-42
2022/09/09 03:14:41;;;;;;;9.23;3.35;;;;;;;14.96;99.17;99885.56;6272245;22;20085;-42
2022/09/09 03:17:09;;;;;;;6.60;3.42;;;;;;;14.96;99.27;99884.75;6272111;22;20039;-42
2022/09/09 03:19:36;;;;;;;11.65;3.53;;;;;;;14.96;99.26;99891.13;6271810;22;20020;-42
2022/09/09 03:22:04;;;;;;;9.02;4.00;;;;;;;14.97;99.39;99892.75;6271831;22;20019;-45
2022/09/09 03:24:30;;;;;;;7.05;3.40;;;;;;;14.95;99.35;99888.75;6271830;22;20085;-41
2022/09/09 03:26:57;;;;;;;7.68;3.60;;;;;;;14.92;99.58;99895.13;6272147;22;20327;-42
2022/09/09 03:29:24;;;;;;;6.68;3.67;;;;;;;14.91;99.68;99894.31;6271894;22;20020;-41
2022/09/09 03:31:50;;;;;;;10.48;4.22;;;;;;;14.90;99.79;99892.72;6271908;22;20026;-41
2022/09/09 03:34:17;;;;;;;14.48;4.35;;;;;;;14.89;99.78;99902.28;6271862;22;20744;-41
2022/09/09 03:36:46;;;;;;;7.60;3.58;;;;;;;14.89;100.00;99891.13;6272102;22;20069;-42
2022/09/09 03:39:14;;;;;;;6.60;3.97;;;;;;;14.89;100.00;99893.91;6271654;22;20027;-44
2022/09/09 03:41:41;;;;;;;14.82;4.05;;;;;;;14.89;100.00;99896.69;6271297;22;20047;-42
2022/09/09 03:44:08;;;;;;;9.18;3.85;;;;;;;14.88;100.00;99903.47;6271442;22;20024;-42
2022/09/09 03:46:34;;;;;;;12.05;3.90;;;;;;;14.86;100.00;99897.47;6271527;22;20024;-42
2022/09/09 03:49:02;;;;;;;10.30;4.05;;;;;;;14.84;100.00;99905.44;6271244;22;20389;-42
2022/09/09 03:51:28;;;;;;;9.68;3.85;;;;;;;14.83;100.00;99901.06;6271175;22;20086;-42
2022/09/09 03:53:56;;;;;;;4.75;3.05;;;;;;;14.84;100.00;99899.88;6270919;22;20026;-42
2022/09/09 03:56:24;;;;;;;7.22;3.22;;;;;;;14.82;100.00;99901.47;6271220;22;20024;-45
2022/09/09 03:58:50;;;;;;;5.35;3.42;;;;;;;14.82;100.00;99896.69;6270299;22;20086;-49
2022/09/09 04:01:18;;;;;;;6.07;3.58;;;;;;;14.83;100.00;99898.28;6270760;22;20051;-43
2022/09/09 04:03:45;;;;;;;6.47;3.13;;;;;;;14.86;100.00;99902.25;6271163;22;20019;-43
2022/09/09 04:06:14;;;;;;;4.45;3.08;;;;;;;14.82;100.00;99896.69;6271375;22;20023;-45
2022/09/09 04:08:41;;;;;;;10.75;4.20;;;;;;;14.81;100.00;99900.66;6271223;22;20023;-42
2022/09/09 04:11:09;;;;;;;6.55;3.08;;;;;;;14.81;100.00;99897.88;6270744;22;20024;-42
2022/09/09 04:13:38;;;;;;;7.47;3.42;;;;;;;14.78;100.00;99901.44;6270889;22;20024;-43
2022/09/09 04:16:06;;;;;;;6.80;2.75;;;;;;;14.79;100.00;99902.25;6271061;22;20077;-42
2022/09/09 04:18:34;;;;;;;6.63;2.63;;;;;;;14.79;100.00;99897.47;6270946;22;20049;-43
2022/09/09 04:21:03;;;;;;;4.55;2.50;;;;;;;14.78;100.00;99893.09;6270654;22;20077;-43
2022/09/09 04:23:30;;;;;;;4.70;2.00;;;;;;;14.75;100.00;99902.22;6271894;22;20043;-43
2022/09/09 04:25:59;;;;;;;6.00;2.88;;;;;;;14.75;100.00;99905.00;6271448;22;20015;-43
2022/09/09 04:28:28;;;;;;;5.68;2.78;;;;;;;14.72;100.00;99897.44;6270405;22;20449;-43
2022/09/09 04:30:56;;;;;;;3.03;2.47;;;;;;;14.71;100.00;99918.16;6270823;22;20467;-43
2022/09/09 04:33:27;;;;;;;5.65;2.97;;;;;;;14.71;100.00;99911.78;6270618;22;20489;-45
2022/09/09 04:35:54;;;;;;;6.25;2.83;;;;;;;14.70;100.00;99910.97;6270972;22;20020;-43
2022/09/09 04:38:22;;;;;;;3.50;2.25;;;;;;;14.71;100.00;99907.00;6271440;22;20042;-42
2022/09/09 04:40:51;;;;;;;4.90;3.00;;;;;;;14.73;100.00;99914.97;6270719;22;20454;-43
2022/09/09 04:43:22;;;;;;;9.50;2.90;;;;;;;14.72;100.00;99897.44;6271283;22;20039;-43
2022/09/09 04:45:51;;;;;;;11.93;3.92;;;;;;;14.69;100.00;99909.41;6270781;22;20031;-44
2022/09/09 04:48:18;;;;;;;7.72;2.65;;;;;;;14.71;100.00;99918.16;6271187;22;20020;-46
2022/09/09 04:50:54;;;;;;;6.22;2.85;;;;;;;14.72;100.00;99910.59;6271487;22;20019;-45
2022/09/09 04:53:21;;;;;;;3.97;2.38;;;;;;;14.70;100.00;99915.75;6270657;22;20023;-46
2022/09/09 04:55:49;;;;;;;4.35;2.08;;;;;;;14.70;100.00;99910.97;6270914;22;20070;-43
2022/09/09 04:58:15;;;;;;;4.70;2.38;;;;;;;14.70;100.00;99913.75;6270680;22;20020;-43
2022/09/09 05:00:42;;;;;;;5.05;2.42;;;;;;;14.68;100.00;99915.34;6270408;22;20449;-43
2022/09/09 05:03:09;;;;;;;3.53;1.88;;;;;;;14.69;100.00;99906.59;6270387;22;20027;-42
2022/09/09 05:05:35;;;;;;;7.32;2.90;;;;;;;14.69;100.00;99914.16;6271129;22;20077;-42
2022/09/09 05:08:06;;;;;;;4.82;2.40;;;;;;;14.66;100.00;99915.75;6270857;22;20023;-43
2022/09/09 05:10:33;;;;;;;5.82;3.03;;;;;;;14.68;100.00;99918.13;6271000;22;20023;-51
2022/09/09 05:13:00;;;;;;;4.03;2.58;;;;;;;14.67;100.00;99917.31;6270892;22;20345;-43
2022/09/09 05:15:27;;;;;;;3.20;2.58;;;;;;;14.67;100.00;99914.53;6270561;22;20020;-43
2022/09/09 05:18:00;;;;;;;4.28;2.42;;;;;;;14.66;100.00;99921.31;6270686;22;20031;-47
2022/09/09 05:20:27;;;;;;;3.75;2.55;;;;;;;14.66;100.00;99926.09;6270724;22;20318;-43
2022/09/09 05:22:56;;;;;;;5.80;2.97;;;;;;;14.66;100.00;99926.88;6243988;22;20244;-43
2022/09/09 05:25:27;;;;;;;7.45;3.00;;;;;;;14.63;100.00;99922.09;6270649;22;20533;-43
2022/09/09 05:27:59;;;;;;;9.98;3.72;;;;;;;14.61;100.00;99935.63;6271004;22;20448;-43
2022/09/09 05:30:26;;;;;;;2.90;2.10;;;;;;;14.59;100.00;99926.84;6243911;22;20023;-48
2022/09/09 05:32:56;;;;;;;3.38;2.10;;;;;;;14.59;100.00;99922.06;6272408;22;20026;-43
2022/09/09 05:35:22;;;;;;;5.32;3.00;;;;;;;14.60;100.00;99928.44;6272989;22;20011;-45
2022/09/09 05:37:49;;;;;;;7.45;3.13;;;;;;;14.60;100.00;99928.44;6272842;22;20374;-42
2022/09/09 05:40:16;;;;;;;4.22;2.63;;;;;;;14.61;100.00;99933.63;6272979;22;20019;-43
2022/09/09 05:42:42;;;;;;;6.38;3.08;;;;;;;14.61;100.00;99933.63;6271247;22;20442;-42
2022/09/09 05:45:09;;;;;;;5.72;3.10;;;;;;;14.62;100.00;99938.00;6272663;22;20030;-44
2022/09/09 05:47:37;;;;;;;7.22;3.10;;;;;;;14.63;100.00;99938.81;6273094;22;20065;-42
2022/09/09 05:50:04;;;;;;;4.68;3.03;;;;;;;14.64;100.00;99941.19;6272415;22;20020;-43
2022/09/09 05:52:31;;;;;;;8.10;3.30;;;;;;;14.65;100.00;99953.16;6272944;22;20015;-42
2022/09/09 05:54:59;;;;;;;3.90;2.92;;;;;;;14.67;100.00;99955.56;6272747;22;20110;-42
2022/09/09 05:57:25;;;;;;;7.45;3.85;;;;;;;14.66;100.00;99956.72;6273104;22;20031;-42
2022/09/09 05:59:53;;;;;;;8.43;3.17;;;;;;;14.65;100.00;99964.28;6273421;22;20023;-43
2022/09/09 06:02:20;;;;;;;9.52;3.88;;;;;;;14.65;100.00;99958.72;6273255;22;20461;-44
2022/09/09 06:04:51;;;;;;;5.30;3.25;;;;;;;14.66;100.00;99960.31;6274237;22;20077;-43
2022/09/09 06:07:18;;;;;;;7.57;3.15;;;;;;;14.66;100.00;99960.31;6273130;22;20019;-43
2022/09/09 06:09:44;;;;;;;5.57;2.65;;;;;;;14.68;100.00;99966.28;6273527;22;20019;-47
2022/09/09 06:12:11;;;;;;;6.75;3.38;;;;;;;14.69;100.00;99964.31;6272965;22;20339;-43
2022/09/09 06:14:37;;;;;;;5.30;3.17;;;;;;;14.70;100.00;99968.69;6273013;22;20016;-43
2022/09/09 06:17:08;;;;;;;5.47;3.22;;;;;;;14.72;100.00;99975.44;6246624;22;21058;-43
2022/09/09 06:19:35;;;;;;;6.47;2.88;;;;;;;14.73;100.00;99974.28;6272719;22;20117;-43
2022/09/09 06:22:01;;;;;;;5.40;2.97;;;;;;;14.75;100.00;99979.44;6272676;22;20016;-43
2022/09/09 06:24:30;;;;;;;7.22;3.10;;;;;;;14.75;100.00;99980.25;6272485;22;20020;-43
2022/09/09 06:26:57;;;;;;;9.73;3.53;;;;;;;14.75;100.00;99980.25;6272922;22;20028;-43
2022/09/09 06:29:25;;;;;;;6.43;2.75;;;;;;;14.75;100.00;99991.38;6272578;22;20019;-43
2022/09/09 06:31:51;;;;;;;5.75;2.88;;;;;;;14.76;100.00;99995.78;6272154;22;20015;-44
2022/09/09 06:34:18;;;;;;;5.25;2.90;;;;;;;14.76;100.00;99993.00;6272262;22;20027;-43
2022/09/09 06:36:46;;;;;;;6.63;2.95;;;;;;;14.78;100.00;100000.94;6272326;22;20032;-46
2022/09/09 06:39:13;;;;;;;4.90;3.10;;;;;;;14.78;100.00;99998.97;6245863;22;20488;-43
2022/09/09 06:41:42;;;;;;;7.28;3.15;;;;;;;14.81;100.00;100000.19;6272412;22;20019;-43
2022/09/09 06:44:13;;;;;;;6.68;3.60;;;;;;;14.81;100.00;100006.56;6272267;22;20023;-42
2022/09/09 06:46:40;;;;;;;7.05;3.85;;;;;;;14.81;100.00;100014.91;6272089;22;20408;-43
2022/09/09 06:49:08;;;;;;;4.20;3.03;;;;;;;14.81;100.00;100012.13;6272132;22;20038;-42
2022/09/09 06:51:42;;;;;;;3.70;3.00;;;;;;;14.81;100.00;100014.91;6245808;22;20046;-42
2022/09/09 06:54:11;;;;;;;5.90;2.58;;;;;;;14.82;100.00;100019.31;6271977;22;20042;-43
2022/09/09 06:56:41;;;;;;;3.80;2.85;;;;;;;14.83;100.00;100015.31;6271500;22;20442;-42
2022/09/09 06:59:09;;;;;;;7.28;3.60;;;;;;;14.83;100.00;100020.88;6272219;22;20073;-43
2022/09/09 07:01:42;;;;;;;6.25;3.70;;;;;;;14.84;100.00;100019.72;6271489;22;20077;-43
2022/09/09 07:04:10;;;;;;;5.15;3.00;;;;;;;14.86;100.00;100034.03;6271799;22;20054;-43
2022/09/09 07:06:42;;;;;;;3.58;2.97;;;;;;;14.86;100.00;100042.41;6271565;22;20026;-43
2022/09/09 07:09:12;;;;;;;5.10;3.25;;;;;;;14.87;100.00;100046.81;6242918;22;20020;-44
2022/09/09 07:11:42;;;;;;;3.28;2.67;;;;;;;14.89;100.00;100043.63;6272046;22;20114;-43
2022/09/09 07:14:13;;;;;;;4.95;3.78;;;;;;;14.92;100.00;100060.34;6244675;22;20457;-44
2022/09/09 07:16:41;;;;;;;5.57;3.80;;;;;;;14.94;100.00;100046.81;6270527;22;20023;-43
2022/09/09 07:19:09;;;;;;;3.97;3.15;;;;;;;15.00;100.00;100063.97;6271339;22;20024;-45
2022/09/09 07:21:36;;;;;;;6.53;2.75;;;;;;;15.01;100.00;100054.44;6271208;22;20029;-42
2022/09/09 07:24:07;;;;;;;5.68;3.20;;;;;;;14.99;100.00;100057.59;6271762;22;20107;-45
2022/09/09 07:26:34;;;;;;;3.40;3.00;;;;;;;15.00;100.00;100064.78;6270718;22;20190;-46
2022/09/09 07:29:03;;;;;;;3.33;3.03;;;;;;;15.04;100.00;100078.72;6271700;22;20073;-43
2022/09/09 07:31:36;;;;;;;4.10;3.25;;;;;;;15.10;100.00;100077.97;6271269;22;20066;-44
2022/09/09 07:34:04;;;;;;;4.75;3.50;;;;;;;15.13;100.00;100077.19;6271154;22;20023;-43
2022/09/09 07:36:33;;;;;;;5.20;4.75;;;;;;;15.17;100.00;100075.19;6243643;22;20031;-45
2022/09/09 07:39:05;;;;;;;4.13;3.55;;;;;;;15.22;100.00;100093.56;6271640;22;20016;-41
2022/09/09 07:41:39;;;;;;;9.85;3.28;;;;;;;15.25;100.00;100082.41;6272467;22;20023;-43
2022/09/09 07:44:10;;;;;;;178.10;86.80;;;;;;;15.32;100.00;100083.63;6271801;22;20094;-48
2022/09/09 07:46:39;;;;;;;80.10;49.72;;;;;;;15.38;100.00;100082.84;6271458;22;20118;-51
2022/09/09 07:49:07;;;;;;;9.73;5.68;;;;;;;15.49;100.00;100099.66;6270755;22;20040;-51
2022/09/09 07:51:36;;;;;;;9.25;5.38;;;;;;;15.60;100.00;100089.31;6271627;22;20019;-53
2022/09/09 07:54:06;;;;;;;8.43;3.75;;;;;;;15.72;100.00;100095.34;6270997;22;20032;-51
2022/09/09 07:56:33;;;;;;;6.75;3.60;;;;;;;15.88;100.00;100099.75;6271176;22;20023;-47
2022/09/09 07:59:00;;;;;;;3.53;2.70;;;;;;;16.03;100.00;100104.94;6270526;22;20297;-48
2022/09/09 08:01:34;;;;;;;4.15;2.58;;;;;;;16.19;100.00;100097.00;6270817;22;20019;-49
2022/09/09 08:04:03;;;;;;;3.20;2.45;;;;;;;16.32;100.00;100106.56;6271639;22;20035;-49
2022/09/09 08:06:35;;;;;;;3.00;1.98;;;;;;;16.38;100.00;100116.16;6243748;22;20394;-48
2022/09/09 08:09:02;;;;;;;;;;;;;;;16.29;100.00;100118.53;6272371;22;20377;-47
2022/09/09 08:11:30;;;;;;;6.05;1.40;;;;;;;16.24;100.00;100120.91;6243646;22;19919;-50
2022/09/09 08:14:04;;;;;;;3.15;2.10;;;;;;;16.24;100.00;100132.09;6271188;22;20107;-48
2022/09/09 08:16:36;;;;;;;4.55;1.10;;;;;;;16.33;100.00;100136.09;6270720;22;20438;-49
2022/09/09 08:19:03;;;;;;;2.13;1.10;;;;;;;16.59;100.00;100136.91;6270011;22;20426;-49
2022/09/09 08:21:32;;;;;;;1.40;1.30;;;;;;;16.87;100.00;100137.66;6271258;22;20069;-49
2022/09/09 08:24:02;;;;;;;1.35;1.17;;;;;;;17.07;100.00;100135.25;6271175;22;20050;-54
2022/09/09 08:26:34;;;;;;;3.92;1.33;;;;;;;17.09;100.00;100143.22;6271197;22;20022;-50
2022/09/09 08:29:04;;;;;;;2.97;1.20;;;;;;;17.01;100.00;100148.84;6270932;22;20065;-51
2022/09/09 08:31:37;;;;;;;6.63;2.20;;;;;;;16.97;100.00;100147.25;6270056;22;20022;-49
2022/09/09 08:34:05;;;;;;;4.30;1.10;;;;;;;17.03;100.00;100159.63;6270473;22;20446;-48
2022/09/09 08:36:36;;;;;;;5.20;1.10;;;;;;;17.12;100.00;100157.22;6271040;22;20027;-49
2022/09/09 08:39:05;;;;;;;1.27;1.02;;;;;;;17.26;100.00;100165.53;6270453;22;20389;-50
2022/09/09 08:41:50;;;;;;;1.73;1.10;;;;;;;17.43;100.00;100169.50;6243466;22;20016;-53
2022/09/09 08:44:41;;;;;;;2.05;1.33;;;;;;;17.57;100.00;100173.06;6270528;22;20019;-53
2022/09/09 08:47:49;;;;;;;2.97;0.90;;;;;;;17.53;100.00;100179.88;6270820;22;20546;-54
2022/09/09 08:50:26;;;;;;;2.80;0.95;;;;;;;17.42;99.73;100179.09;6271066;22;20023;-48
2022/09/09 08:53:30;;;;;;;3.83;0.80;;;;;;;17.32;99.39;100177.91;6270702;22;20361;-49
2022/09/09 08:56:09;;;;;;;2.63;0.95;;;;;;;17.21;98.61;100179.94;6222642;22;20047;-54
2022/09/09 08:58:49;;;;;;;1.80;0.75;;;;;;;17.20;98.55;100180.34;6270991;22;20016;-49
2022/09/09 09:01:20;;;;;;;3.03;1.00;;;;;;;17.16;97.67;100188.75;6270577;22;20319;-51
2022/09/09 09:04:02;;;;;;;2.88;0.98;;;;;;;17.13;97.50;100200.75;6270660;22;20449;-51
2022/09/09 09:06:36;;;;;;;2.03;1.25;;;;;;;17.14;96.99;100196.75;6270601;22;20465;-50
2022/09/09 09:09:08;;;;;;;3.75;1.00;;;;;;;17.13;96.86;100209.13;6273287;22;20012;-51
2022/09/09 09:11:41;;;;;;;2.25;0.70;;;;;;;17.13;96.50;100213.94;6273152;22;20442;-49
2022/09/09 09:14:23;;;;;;;5.63;0.82;;;;;;;17.09;96.35;100216.75;6272588;22;20089;-51
2022/09/09 09:16:57;;;;;;;1.05;0.70;;;;;;;17.03;96.04;100221.13;6273330;22;20020;-56
2022/09/09 09:19:26;;;;;;;0.90;0.63;;;;;;;16.98;96.05;100221.53;6246334;22;20346;-55
2022/09/09 09:21:55;;;;;;;2.10;0.80;;;;;;;16.94;95.67;100238.31;6272856;22;20093;-52
2022/09/09 09:24:42;;;;;;;2.25;0.80;;;;;;;16.97;95.77;100226.34;6272828;22;20094;-51
2022/09/09 09:27:14;;;;;;;3.22;0.80;;;;;;;17.02;95.30;100233.53;6273307;22;20030;-53
2022/09/09 09:29:43;;;;;;;2.58;1.17;;;;;;;17.09;94.98;100233.53;6273248;22;20020;-57
2022/09/09 09:32:34;;;;;;;2.17;0.85;;;;;;;17.15;94.41;100231.94;6273010;22;20020;-43
2022/09/09 09:35:09;;;;;;;1.95;1.13;;;;;;;17.17;94.33;100251.09;6273258;22;20023;-43
2022/09/09 09:37:36;;;;;;;4.45;2.15;;;;;;;17.21;94.05;100244.28;6272904;22;20030;-44
2022/09/09 09:40:18;;;;;;;5.45;1.33;;;;;;;17.31;94.12;100239.91;6273440;22;20015;-44
2022/09/09 09:42:59;;;;;;;1.95;0.85;;;;;;;17.52;94.23;100251.84;6272613;22;20061;-43
2022/09/09 09:45:43;;;;;;;3.90;1.15;;;;;;;17.71;92.76;100249.81;6272879;22;20027;-44
2022/09/09 09:48:27;;;;;;;4.15;1.58;;;;;;;17.75;92.08;100258.97;6272026;22;20034;-46
2022/09/09 09:51:10;;;;;;;2.33;1.05;;;;;;;17.78;91.81;100261.78;6272661;22;20011;-44
2022/09/09 09:53:38;;;;;;;3.13;1.10;;;;;;;17.79;91.68;100268.19;6272763;22;20456;-43
2022/09/09 09:56:10;;;;;;;2.63;0.82;;;;;;;17.79;91.36;100276.59;6272514;22;20023;-44
2022/09/09 09:58:46;;;;;;;;;;;;;;;17.77;91.71;100273.38;6273388;22;20023;-44
2022/09/09 10:01:25;;;;;;;3.05;1.42;;;;;;;17.81;91.12;100271.38;6271402;22;19972;-43
2022/09/09 10:04:15;;;;;;;3.33;1.50;;;;;;;17.82;90.91;100278.56;6272236;22;20333;-43
2022/09/09 10:06:42;;;;;;;2.97;1.10;;;;;;;17.83;91.07;100274.56;6271966;22;20025;-43
2022/09/09 10:09:24;;;;;;;3.30;1.73;;;;;;;17.93;90.87;100282.13;6271747;22;20054;-44
2022/09/09 10:11:55;;;;;;;2.53;1.20;;;;;;;17.99;90.18;100286.09;6272394;22;20066;-44
2022/09/09 10:14:33;;;;;;;3.35;1.17;;;;;;;18.01;89.57;100286.47;6271564;22;20019;-43
2022/09/09 10:16:59;;;;;;;4.28;1.33;;;;;;;18.05;89.02;100279.69;6270942;22;20346;-45
2022/09/09 10:19:34;;;;;;;4.70;1.23;;;;;;;18.07;89.14;100285.66;6271826;22;20027;-44
2022/09/09 10:22:28;;;;;;;1.27;1.10;;;;;;;18.19;89.10;100281.59;6272233;22;20069;-44
2022/09/09 10:25:30;;;;;;;0.80;0.80;;;;;;;18.42;88.41;100287.50;6271956;22;20015;-43
2022/09/09 10:28:40;;;;;;;5.63;1.42;;;;;;;18.57;87.77;100291.84;6255428;22;20031;-43
2022/09/09 10:31:56;;;;;;;1.95;1.42;;;;;;;18.61;86.84;100289.00;6257179;22;20023;-43
2022/09/09 10:34:36;;;;;;;4.75;1.00;;;;;;;18.49;86.48;100298.69;6265416;22;20016;-44
2022/09/09 10:37:22;;;;;;;2.88;1.17;;;;;;;18.41;86.68;100308.31;6244973;22;20027;-44
2022/09/09 10:40:00;;;;;;;1.42;1.05;;;;;;;18.35;86.59;100304.34;6271824;22;20016;-44
2022/09/09 10:42:31;;;;;;;2.53;1.00;;;;;;;18.52;86.45;100302.69;6272364;22;20081;-43
2022/09/09 10:45:23;;;;;;;0.80;0.80;;;;;;;19.57;83.47;100308.66;6271267;22;20024;-48
2022/09/09 10:48:12;;;;;;;3.03;0.80;;;;;;;20.53;79.88;100318.38;6271406;22;20026;-46
2022/09/09 10:50:57;;;;;;;0.70;0.70;;;;;;;20.70;78.86;100313.72;6271881;22;20118;-44
2022/09/09 10:53:43;;;;;;;0.90;0.57;;;;;;;20.40;78.99;100319.38;6271655;22;20019;-46
2022/09/09 10:56:14;;;;;;;0.50;0.50;;;;;;;20.18;79.39;100312.38;6272193;22;20026;-44
2022/09/09 10:58:46;;;;;;;1.98;0.70;;;;;;;19.93;79.84;100319.13;6271701;22;20023;-45
2022/09/09 11:01:21;;;;;;;1.65;0.63;;;;;;;19.75;79.73;100323.34;6270937;22;20339;-46
2022/09/09 11:03:55;;;;;;;2.88;0.90;;;;;;;19.61;79.98;100324.28;6271554;22;20026;-44
2022/09/09 11:06:30;;;;;;;2.33;0.80;;;;;;;19.53;79.53;100331.19;6271101;22;20023;-44
2022/09/09 11:08:59;;;;;;;1.08;0.70;;;;;;;19.37;79.13;100336.50;6271249;22;20026;-45
2022/09/09 11:11:53;;;;;;;2.25;1.00;;;;;;;19.25;79.85;100334.19;6271965;22;20380;-44
2022/09/09 11:14:26;;;;;;;1.50;0.85;;;;;;;19.18;80.01;100335.06;6271667;22;20042;-43
2022/09/09 11:17:09;;;;;;;2.35;0.85;;;;;;;19.24;80.25;100339.03;6271258;22;20015;-45
2022/09/09 11:19:43;;;;;;;0.95;0.80;;;;;;;19.43;79.53;100340.50;6271767;22;20098;-44
2022/09/09 11:22:42;;;;;;;1.48;1.33;;;;;;;19.43;79.24;100340.50;6244611;22;20031;-42
2022/09/09 11:25:37;;;;;;;0.73;0.65;;;;;;;19.52;78.78;100343.63;6271703;22;20028;-42
2022/09/09 11:28:27;;;;;;;2.80;1.25;;;;;;;19.59;77.55;100343.53;6271620;22;20073;-42
2022/09/09 11:31:12;;;;;;;3.50;1.23;;;;;;;19.64;77.36;100357.16;6270319;22;20023;-42
2022/09/09 11:33:57;;;;;;;1.35;0.60;;;;;;;19.71;76.88;100351.47;6271014;22;20398;-41
2022/09/09 11:36:34;;;;;;;2.80;0.70;;;;;;;19.70;77.17;100349.84;6271161;22;20019;-44
2022/09/09 11:39:10;;;;;;;1.15;0.80;;;;;;;19.77;76.88;100355.44;6271171;22;20023;-41
2022/09/09 11:41:37;;;;;;;0.70;0.70;;;;;;;19.80;76.31;100353.78;6271544;22;20026;-43
2022/09/09 11:44:12;;;;;;;2.47;2.08;;;;;;;19.72;76.58;100363.50;6270398;22;20026;-42
2022/09/09 11:46:41;;;;;;;2.22;1.98;;;;;;;19.55;76.55;100354.03;6270895;22;20024;-43
2022/09/09 11:49:28;;;;;;;7.78;5.18;;;;;;;19.37;77.44;100357.00;6269946;22;20043;-43
2022/09/09 11:51:55;;;;;;;3.42;2.08;;;;;;;19.20;77.75;100357.09;6270910;22;20027;-46
2022/09/09 11:54:32;;;;;;;5.68;3.03;;;;;;;19.16;78.07;100359.16;6271031;22;20086;-42
2022/09/09 11:56:59;;;;;;;5.47;3.55;;;;;;;19.26;78.20;100359.06;6271343;22;20034;-43
2022/09/09 11:59:32;;;;;;;6.13;1.77;;;;;;;19.49;78.43;100366.91;6270949;22;20094;-42